Sommer S — WDG3830 — position and weather

sailwx.info

Track history (hours):
 
Tides and Currents Weather Stations Pressure Air Temp Water Temp Dewpoint Dewpoint Depression Visibility Wind Speed Wind Dir Waves Ship Positions

Sommer S

Owner: Shaver Transportation Company, Portland, OR. More information available from US FCC via Universal Licensing System and Coast Guard Vessel Documentation Center.

Last reported at 2014-Nov-27 16:33 UTC. Time now 2014-Nov-27 17:16 UTC.
Position N 45°39' W 122°45'.

Length 25 m.

Type: Tug. MMSI: 367530080.

Date/timePositionNaut miles runAvg speedWind from/ knotsBaromVisibWave heightAir tempDewpointWater temp
2014-Nov-27 16:33N 45°39' W 122°45'0 0.0
2014-Nov-27 15:33N 45°39' W 122°45'0 0.0
2014-Nov-27 14:33N 45°39' W 122°45'0 0.0
2014-Nov-27 13:33N 45°39' W 122°45'0 0.4
2014-Nov-27 12:33N 45°39' W 122°44'2 1.9
2014-Nov-27 11:33N 45°38' W 122°47'5 5.2
2014-Nov-27 10:33N 45°34' W 122°44'3 2.9
2014-Nov-27 09:33N 45°36' W 122°47'1 0.9
2014-Nov-27 08:33N 45°37' W 122°47'2 2.5
2014-Nov-27 07:33N 45°39' W 122°45'0 0.0
2014-Nov-27 06:33N 45°39' W 122°45'0 0.0
2014-Nov-27 05:33N 45°39' W 122°45'1 1.5
2014-Nov-27 04:33N 45°38' W 122°43'0 0.0
2014-Nov-27 03:33N 45°38' W 122°43'1 1.2
2014-Nov-27 02:34N 45°39' W 122°45'0 0.1
2014-Nov-27 01:33N 45°39' W 122°45'0 0.0
2014-Nov-27 00:33N 45°39' W 122°45'0 0.0
2014-Nov-26 23:33N 45°39' W 122°45'0 0.0
2014-Nov-26 22:33N 45°39' W 122°45'1 1.1
2014-Nov-26 21:33N 45°38' W 122°43'8 8.2
2014-Nov-26 20:33N 45°46' W 122°46'9 9.4
2014-Nov-26 19:33N 45°56' W 122°48'7 6.6
2014-Nov-26 18:33N 46°02' W 122°52'4 4.4
2014-Nov-26 17:33N 45°58' W 122°49'1212.0
2014-Nov-26 16:33N 45°46' W 122°46'7 7.4
2014-Nov-26 15:33N 45°39' W 122°45'0 0.0
2014-Nov-26 14:33N 45°39' W 122°45'0 0.0
2014-Nov-26 13:33N 45°39' W 122°45'1 1.5
2014-Nov-26 12:33N 45°38' W 122°47'1 1.2
2014-Nov-26 11:33N 45°39' W 122°45'3 2.7
2014-Nov-26 10:33N 45°38' W 122°42'2 1.6
2014-Nov-26 09:33N 45°38' W 122°44'0 0.0
2014-Nov-26 08:33N 45°38' W 122°44'0 0.0
2014-Nov-26 07:33N 45°38' W 122°44'1 0.6
2014-Nov-26 06:33N 45°38' W 122°43'1 1.3
2014-Nov-26 05:33N 45°39' W 122°45'2 2.4
2014-Nov-26 04:33N 45°38' W 122°42'2 1.5
2014-Nov-26 03:33N 45°38' W 122°44'0 0.0
2014-Nov-26 02:33N 45°38' W 122°44'0 0.0
2014-Nov-26 01:33N 45°38' W 122°44'1 0.9
2014-Nov-26 00:33N 45°39' W 122°45'0 0.0
2014-Nov-25 23:32N 45°39' W 122°45'1 0.8
2014-Nov-25 22:33N 45°38' W 122°44'1 0.7
2014-Nov-25 21:33N 45°39' W 122°45'2 1.7
2014-Nov-25 20:33N 45°38' W 122°47'3 3.4
2014-Nov-25 19:33N 45°35' W 122°45'4 3.6
2014-Nov-25 18:33N 45°38' W 122°43'1 1.2
2014-Nov-25 17:32N 45°39' W 122°45'1 1.5
2014-Nov-25 16:33N 45°40' W 122°46'1 1.0
2014-Nov-25 15:33N 45°41' W 122°46'1 0.8
2014-Nov-25 14:33N 45°40' W 122°46'2 1.7
2014-Nov-25 13:33N 45°39' W 122°45'0 0.0
2014-Nov-25 12:33N 45°39' W 122°45'0 0.0
2014-Nov-25 11:33N 45°39' W 122°45'0 0.0
2014-Nov-25 10:33N 45°39' W 122°45'0 0.0
2014-Nov-25 09:33N 45°39' W 122°45'2 2.2
2014-Nov-25 08:33N 45°38' W 122°42'0 0.1
2014-Nov-25 07:33N 45°38' W 122°42'3 2.6
2014-Nov-25 06:33N 45°39' W 122°45'1 0.6
2014-Nov-25 05:33N 45°39' W 122°46'0 0.0
2014-Nov-25 04:33N 45°39' W 122°46'0 0.0
2014-Nov-25 03:33N 45°39' W 122°46'0 0.0
2014-Nov-25 02:33N 45°39' W 122°46'1 0.8
2014-Nov-25 01:33N 45°39' W 122°46'0 0.1
2014-Nov-25 00:33N 45°38' W 122°47'4 4.3
2014-Nov-24 23:33N 45°34' W 122°45'1 1.0
2014-Nov-24 22:33N 45°34' W 122°44'0 0.0
2014-Nov-24 21:33N 45°34' W 122°44'0 0.0
2014-Nov-24 20:33N 45°34' W 122°44'0 0.0
2014-Nov-24 19:33N 45°34' W 122°44'2 1.5
2014-Nov-24 18:33N 45°35' W 122°45'4 3.6
2014-Nov-24 17:33N 45°38' W 122°44'1 1.1
2014-Nov-24 16:33N 45°39' W 122°45'1 1.0
2014-Nov-24 15:33N 45°38' W 122°44'1 0.7
2014-Nov-24 14:33N 45°39' W 122°45'0 0.0
2014-Nov-24 13:33N 45°39' W 122°45'0 0.0
2014-Nov-24 12:33N 45°39' W 122°45'0 0.0
2014-Nov-24 11:33N 45°39' W 122°45'0 0.0
2014-Nov-24 10:33N 45°39' W 122°45'1 0.9
2014-Nov-24 09:33N 45°38' W 122°43'3 2.8
2014-Nov-24 08:33N 45°38' W 122°47'5 4.7
2014-Nov-24 07:34N 45°34' W 122°44'0 0.0
2014-Nov-24 06:33N 45°34' W 122°44'0 0.0
2014-Nov-24 05:33N 45°34' W 122°44'0 0.0
2014-Nov-24 04:33N 45°34' W 122°44'0 0.0
2014-Nov-24 03:33N 45°34' W 122°44'0 0.0
2014-Nov-24 02:33N 45°34' W 122°44'0 0.0
2014-Nov-24 01:33N 45°34' W 122°44'0 0.0
2014-Nov-24 00:33N 45°34' W 122°44'0 0.0
2014-Nov-23 23:33N 45°34' W 122°44'0 0.0
2014-Nov-23 22:32N 45°34' W 122°44'0 0.0
2014-Nov-23 21:33N 45°34' W 122°44'0 0.0
2014-Nov-23 20:33N 45°34' W 122°44'0 0.0
2014-Nov-23 19:33N 45°34' W 122°44'0 0.0
2014-Nov-23 18:33N 45°34' W 122°44'0 0.0
2014-Nov-23 17:33N 45°34' W 122°44'1 0.5
2014-Nov-23 16:33N 45°33' W 122°43'4 4.4
2014-Nov-23 15:33N 45°38' W 122°42'1 1.2
2014-Nov-23 14:33N 45°38' W 122°43'0 0.2
2014-Nov-23 13:33N 45°38' W 122°44'2 2.2
2014-Nov-23 12:33N 45°38' W 122°47'1 1.2
2014-Nov-23 11:32N 45°39' W 122°45'1 1.4
2014-Nov-23 10:33N 45°38' W 122°47'5 5.1
2014-Nov-23 09:33N 45°34' W 122°44'3 2.8
2014-Nov-23 08:33N 45°32' W 122°40'1 0.9
2014-Nov-23 07:33N 45°33' W 122°41'5 5.1
2014-Nov-23 06:33N 45°36' W 122°47'3 2.8
2014-Nov-23 05:33N 45°39' W 122°45'0 0.0
2014-Nov-23 04:33N 45°39' W 122°45'1 0.6
2014-Nov-23 03:33N 45°39' W 122°46'0 0.0
2014-Nov-23 02:33N 45°39' W 122°46'0 0.0
2014-Nov-23 01:33N 45°39' W 122°46'0 0.0
2014-Nov-23 00:33N 45°39' W 122°46'0 0.0
2014-Nov-22 23:33N 45°39' W 122°46'0 0.2
2014-Nov-22 22:33N 45°39' W 122°46'7 6.9
2014-Nov-22 21:33N 45°46' W 122°46'1110.8
2014-Nov-22 20:33N 45°57' W 122°48'1010.2
2014-Nov-22 19:33N 46°05' W 122°56'0 0.0
2014-Nov-22 18:33N 46°05' W 122°56'0 0.0
2014-Nov-22 17:33N 46°05' W 122°56'0 0.0
2014-Nov-22 16:33N 46°05' W 122°56'0 0.0
2014-Nov-22 15:33N 46°05' W 122°56'0 0.0
2014-Nov-22 14:33N 46°05' W 122°56'0 0.0
2014-Nov-22 13:33N 46°05' W 122°56'1 1.3
2014-Nov-22 12:33N 46°05' W 122°54'4 3.5
2014-Nov-22 11:33N 46°02' W 122°52'1 0.9
2014-Nov-22 10:33N 46°02' W 122°53'4 3.7
2014-Nov-22 09:33N 46°05' W 122°56'4 3.6
2014-Nov-22 08:33N 46°03' W 122°53'1 0.9
2014-Nov-22 07:33N 46°02' W 122°53'0 0.0
2014-Nov-22 06:33N 46°02' W 122°53'0 0.0
2014-Nov-22 05:33N 46°02' W 122°53'0 0.0
2014-Nov-22 04:33N 46°02' W 122°53'0 0.0
2014-Nov-22 03:33N 46°02' W 122°53'0 0.0
2014-Nov-22 02:33N 46°02' W 122°53'0 0.0
2014-Nov-22 01:33N 46°02' W 122°53'0 0.0
2014-Nov-22 00:33N 46°02' W 122°53'0 0.0
2014-Nov-21 23:33N 46°02' W 122°53'0 0.0
2014-Nov-21 22:33N 46°02' W 122°53'0 0.0
2014-Nov-21 21:33N 46°02' W 122°53'0 0.0
2014-Nov-21 20:33N 46°02' W 122°53'0 0.0
2014-Nov-21 19:33N 46°02' W 122°53'0 0.0
2014-Nov-21 18:33N 46°02' W 122°53'0 0.0
2014-Nov-21 17:33N 46°02' W 122°53'0 0.3
2014-Nov-21 16:33N 46°02' W 122°52'0 0.1
2014-Nov-21 15:33N 46°02' W 122°52'2 2.2
2014-Nov-21 14:33N 46°04' W 122°53'5 4.6
2014-Nov-21 13:33N 46°07' W 122°58'2 2.1
2014-Nov-21 12:33N 46°05' W 122°56'0 0.0
2014-Nov-21 11:33N 46°05' W 122°56'0 0.0
2014-Nov-21 10:33N 46°05' W 122°56'0 0.0
2014-Nov-21 09:33N 46°05' W 122°56'0 0.0
2014-Nov-21 08:33N 46°05' W 122°56'1 0.7
2014-Nov-21 07:34N 46°06' W 122°56'0 0.0
2014-Nov-21 06:34N 46°06' W 122°56'0 0.0
2014-Nov-21 05:33N 46°06' W 122°56'0 0.0
2014-Nov-21 04:34N 46°06' W 122°56'0 0.0
2014-Nov-21 03:33N 46°06' W 122°56'0 0.0
2014-Nov-21 02:33N 46°06' W 122°56'0 0.0
2014-Nov-21 01:33N 46°06' W 122°56'0 0.0
2014-Nov-21 00:33N 46°06' W 122°56'0 0.0
2014-Nov-20 23:33N 46°06' W 122°56'4 4.0
2014-Nov-20 22:33N 46°03' W 122°53'0 0.0
2014-Nov-20 21:33N 46°03' W 122°53'3 3.0
2014-Nov-20 20:33N 46°05' W 122°55'0 0.0
2014-Nov-20 19:33N 46°05' W 122°55'1 0.9
2014-Nov-20 18:33N 46°06' W 122°56'4 4.0
2014-Nov-20 17:33N 46°03' W 122°53'0 0.3
2014-Nov-20 16:33N 46°03' W 122°53'0 0.0
2014-Nov-20 15:33N 46°03' W 122°53'0 0.3
2014-Nov-20 14:33N 46°03' W 122°53'3 3.1
2014-Nov-20 13:33N 46°05' W 122°55'0 0.0
2014-Nov-20 12:33N 46°05' W 122°55'0 0.0
2014-Nov-20 11:33N 46°05' W 122°55'0 0.0
2014-Nov-20 10:33N 46°05' W 122°55'0 0.0
2014-Nov-20 09:33N 46°05' W 122°55'0 0.0
2014-Nov-20 08:33N 46°05' W 122°55'0 0.0
2014-Nov-20 07:33N 46°05' W 122°55'0 0.0
2014-Nov-20 06:33N 46°05' W 122°55'0 0.0
2014-Nov-20 05:33N 46°05' W 122°55'4 4.2
2014-Nov-20 04:33N 46°02' W 122°53'0 0.1
2014-Nov-20 03:33N 46°02' W 122°53'0 0.0
2014-Nov-20 02:33N 46°02' W 122°53'0 0.0
2014-Nov-20 01:33N 46°02' W 122°53'0 0.0
2014-Nov-20 00:33N 46°02' W 122°53'0 0.0
2014-Nov-19 23:33N 46°02' W 122°53'0 0.0
2014-Nov-19 22:33N 46°02' W 122°53'0 0.3
2014-Nov-19 21:33N 46°02' W 122°52'0 0.0
2014-Nov-19 20:33N 46°02' W 122°52'0 0.0
2014-Nov-19 19:33N 46°02' W 122°52'0 0.0
2014-Nov-19 18:33N 46°02' W 122°52'5 5.4
2014-Nov-19 17:33N 45°57' W 122°49'1312.6
2014-Nov-19 16:33N 45°45' W 122°46'8 8.3
2014-Nov-19 15:33N 45°36' W 122°47'3 3.2
2014-Nov-19 14:33N 45°39' W 122°46'1 1.3
2014-Nov-19 13:33N 45°38' W 122°47'1 1.2
2014-Nov-19 12:33N 45°39' W 122°46'1 0.9
2014-Nov-19 11:33N 45°39' W 122°45'0 0.0
2014-Nov-19 10:34N 45°39' W 122°45'2 2.5
2014-Nov-19 09:33N 45°37' W 122°47'3 2.8
2014-Nov-19 08:33N 45°35' W 122°45'1 0.8
2014-Nov-19 07:33N 45°34' W 122°44'3 3.0
2014-Nov-19 06:33N 45°36' W 122°47'3 2.8
2014-Nov-19 05:33N 45°39' W 122°45'0 0.0
2014-Nov-19 04:33N 45°39' W 122°45'0 0.0
2014-Nov-19 03:33N 45°39' W 122°45'2 2.2
2014-Nov-19 02:33N 45°38' W 122°42'1 1.4
2014-Nov-19 01:33N 45°38' W 122°44'1 0.6
2014-Nov-19 00:33N 45°38' W 122°43'0 0.0
2014-Nov-18 23:33N 45°38' W 122°43'0 0.3
2014-Nov-18 22:33N 45°38' W 122°42'0 0.4
2014-Nov-18 21:33N 45°38' W 122°42'2 1.6
2014-Nov-18 20:32N 45°39' W 122°44'1 0.7
2014-Nov-18 19:33N 45°38' W 122°44'1 0.9
2014-Nov-18 18:33N 45°39' W 122°45'0 0.0
2014-Nov-18 17:33N 45°39' W 122°45'1 1.4
2014-Nov-18 16:33N 45°38' W 122°47'5 5.2
2014-Nov-18 15:33N 45°34' W 122°44'3 2.6
2014-Nov-18 14:33N 45°32' W 122°41'1 0.5
2014-Nov-18 13:33N 45°32' W 122°41'3 3.1
2014-Nov-18 12:33N 45°34' W 122°45'4 4.3
2014-Nov-18 11:33N 45°39' W 122°45'0 0.4
2014-Nov-18 10:33N 45°39' W 122°45'0 0.0
2014-Nov-18 09:33N 45°39' W 122°45'0 0.0
2014-Nov-18 08:33N 45°39' W 122°45'0 0.0
2014-Nov-18 07:32N 45°39' W 122°45'1 1.4
2014-Nov-18 06:33N 45°38' W 122°47'1 1.2
2014-Nov-18 05:33N 45°39' W 122°45'1 0.8
2014-Nov-18 04:33N 45°39' W 122°45'0 0.0
2014-Nov-18 03:33N 45°39' W 122°45'1 1.2
2014-Nov-18 02:33N 45°38' W 122°43'3 3.4
2014-Nov-18 01:33N 45°37' W 122°47'7 6.8
2014-Nov-18 00:33N 45°32' W 122°40'3 2.8
2014-Nov-17 23:33N 45°34' W 122°44'0 0.0
2014-Nov-17 22:33N 45°34' W 122°44'0 0.0
2014-Nov-17 21:33N 45°34' W 122°44'1 0.5
2014-Nov-17 20:33N 45°34' W 122°44'0 0.2
2014-Nov-17 19:33N 45°34' W 122°44'3 2.7
2014-Nov-17 18:33N 45°32' W 122°41'0 0.2
2014-Nov-17 17:33N 45°32' W 122°41'0 0.2
2014-Nov-17 16:33N 45°32' W 122°41'  
Track history (hours):
 
Tides and Currents Weather Stations Pressure Air Temp Water Temp Dewpoint Dewpoint Depression Visibility Wind Speed Wind Dir Waves Ship Positions

Sommer S

Owner: Shaver Transportation Company, Portland, OR. More information available from US FCC via Universal Licensing System and Coast Guard Vessel Documentation Center.

Last reported at 2014-Nov-27 16:33 UTC. Time now 2014-Nov-27 17:16 UTC.
Position N 45°39' W 122°45'.

Length 25 m.

Type: Tug. MMSI: 367530080.

Date/timePositionNaut miles runAvg speedWind from/ knotsBaromVisibWave heightAir tempDewpointWater temp
2014-Nov-27 16:33N 45°39' W 122°45'0 0.0
2014-Nov-27 15:33N 45°39' W 122°45'0 0.0
2014-Nov-27 14:33N 45°39' W 122°45'0 0.0
2014-Nov-27 13:33N 45°39' W 122°45'0 0.4
2014-Nov-27 12:33N 45°39' W 122°44'2 1.9
2014-Nov-27 11:33N 45°38' W 122°47'5 5.2
2014-Nov-27 10:33N 45°34' W 122°44'3 2.9
2014-Nov-27 09:33N 45°36' W 122°47'1 0.9
2014-Nov-27 08:33N 45°37' W 122°47'2 2.5
2014-Nov-27 07:33N 45°39' W 122°45'0 0.0
2014-Nov-27 06:33N 45°39' W 122°45'0 0.0
2014-Nov-27 05:33N 45°39' W 122°45'1 1.5
2014-Nov-27 04:33N 45°38' W 122°43'0 0.0
2014-Nov-27 03:33N 45°38' W 122°43'1 1.2
2014-Nov-27 02:34N 45°39' W 122°45'0 0.1
2014-Nov-27 01:33N 45°39' W 122°45'0 0.0
2014-Nov-27 00:33N 45°39' W 122°45'0 0.0
2014-Nov-26 23:33N 45°39' W 122°45'0 0.0
2014-Nov-26 22:33N 45°39' W 122°45'1 1.1
2014-Nov-26 21:33N 45°38' W 122°43'8 8.2
2014-Nov-26 20:33N 45°46' W 122°46'9 9.4
2014-Nov-26 19:33N 45°56' W 122°48'7 6.6
2014-Nov-26 18:33N 46°02' W 122°52'4 4.4
2014-Nov-26 17:33N 45°58' W 122°49'1212.0
2014-Nov-26 16:33N 45°46' W 122°46'7 7.4
2014-Nov-26 15:33N 45°39' W 122°45'0 0.0
2014-Nov-26 14:33N 45°39' W 122°45'0 0.0
2014-Nov-26 13:33N 45°39' W 122°45'1 1.5
2014-Nov-26 12:33N 45°38' W 122°47'1 1.2
2014-Nov-26 11:33N 45°39' W 122°45'3 2.7
2014-Nov-26 10:33N 45°38' W 122°42'2 1.6
2014-Nov-26 09:33N 45°38' W 122°44'0 0.0
2014-Nov-26 08:33N 45°38' W 122°44'0 0.0
2014-Nov-26 07:33N 45°38' W 122°44'1 0.6
2014-Nov-26 06:33N 45°38' W 122°43'1 1.3
2014-Nov-26 05:33N 45°39' W 122°45'2 2.4
2014-Nov-26 04:33N 45°38' W 122°42'2 1.5
2014-Nov-26 03:33N 45°38' W 122°44'0 0.0
2014-Nov-26 02:33N 45°38' W 122°44'0 0.0
2014-Nov-26 01:33N 45°38' W 122°44'1 0.9
2014-Nov-26 00:33N 45°39' W 122°45'0 0.0
2014-Nov-25 23:32N 45°39' W 122°45'1 0.8
2014-Nov-25 22:33N 45°38' W 122°44'1 0.7
2014-Nov-25 21:33N 45°39' W 122°45'2 1.7
2014-Nov-25 20:33N 45°38' W 122°47'3 3.4
2014-Nov-25 19:33N 45°35' W 122°45'4 3.6
2014-Nov-25 18:33N 45°38' W 122°43'1 1.2
2014-Nov-25 17:32N 45°39' W 122°45'1 1.5
2014-Nov-25 16:33N 45°40' W 122°46'1 1.0
2014-Nov-25 15:33N 45°41' W 122°46'1 0.8
2014-Nov-25 14:33N 45°40' W 122°46'2 1.7
2014-Nov-25 13:33N 45°39' W 122°45'0 0.0
2014-Nov-25 12:33N 45°39' W 122°45'0 0.0
2014-Nov-25 11:33N 45°39' W 122°45'0 0.0
2014-Nov-25 10:33N 45°39' W 122°45'0 0.0
2014-Nov-25 09:33N 45°39' W 122°45'2 2.2
2014-Nov-25 08:33N 45°38' W 122°42'0 0.1
2014-Nov-25 07:33N 45°38' W 122°42'3 2.6
2014-Nov-25 06:33N 45°39' W 122°45'1 0.6
2014-Nov-25 05:33N 45°39' W 122°46'0 0.0
2014-Nov-25 04:33N 45°39' W 122°46'0 0.0
2014-Nov-25 03:33N 45°39' W 122°46'0 0.0
2014-Nov-25 02:33N 45°39' W 122°46'1 0.8
2014-Nov-25 01:33N 45°39' W 122°46'0 0.1
2014-Nov-25 00:33N 45°38' W 122°47'4 4.3
2014-Nov-24 23:33N 45°34' W 122°45'1 1.0
2014-Nov-24 22:33N 45°34' W 122°44'0 0.0
2014-Nov-24 21:33N 45°34' W 122°44'0 0.0
2014-Nov-24 20:33N 45°34' W 122°44'0 0.0
2014-Nov-24 19:33N 45°34' W 122°44'2 1.5
2014-Nov-24 18:33N 45°35' W 122°45'4 3.6
2014-Nov-24 17:33N 45°38' W 122°44'1 1.1
2014-Nov-24 16:33N 45°39' W 122°45'1 1.0
2014-Nov-24 15:33N 45°38' W 122°44'1 0.7
2014-Nov-24 14:33N 45°39' W 122°45'0 0.0
2014-Nov-24 13:33N 45°39' W 122°45'0 0.0
2014-Nov-24 12:33N 45°39' W 122°45'0 0.0
2014-Nov-24 11:33N 45°39' W 122°45'0 0.0
2014-Nov-24 10:33N 45°39' W 122°45'1 0.9
2014-Nov-24 09:33N 45°38' W 122°43'3 2.8
2014-Nov-24 08:33N 45°38' W 122°47'5 4.7
2014-Nov-24 07:34N 45°34' W 122°44'0 0.0
2014-Nov-24 06:33N 45°34' W 122°44'0 0.0
2014-Nov-24 05:33N 45°34' W 122°44'0 0.0
2014-Nov-24 04:33N 45°34' W 122°44'0 0.0
2014-Nov-24 03:33N 45°34' W 122°44'0 0.0
2014-Nov-24 02:33N 45°34' W 122°44'0 0.0
2014-Nov-24 01:33N 45°34' W 122°44'0 0.0
2014-Nov-24 00:33N 45°34' W 122°44'0 0.0
2014-Nov-23 23:33N 45°34' W 122°44'0 0.0
2014-Nov-23 22:32N 45°34' W 122°44'0 0.0
2014-Nov-23 21:33N 45°34' W 122°44'0 0.0
2014-Nov-23 20:33N 45°34' W 122°44'0 0.0
2014-Nov-23 19:33N 45°34' W 122°44'0 0.0
2014-Nov-23 18:33N 45°34' W 122°44'0 0.0
2014-Nov-23 17:33N 45°34' W 122°44'1 0.5
2014-Nov-23 16:33N 45°33' W 122°43'4 4.4
2014-Nov-23 15:33N 45°38' W 122°42'1 1.2
2014-Nov-23 14:33N 45°38' W 122°43'0 0.2
2014-Nov-23 13:33N 45°38' W 122°44'2 2.2
2014-Nov-23 12:33N 45°38' W 122°47'1 1.2
2014-Nov-23 11:32N 45°39' W 122°45'1 1.4
2014-Nov-23 10:33N 45°38' W 122°47'5 5.1
2014-Nov-23 09:33N 45°34' W 122°44'3 2.8
2014-Nov-23 08:33N 45°32' W 122°40'1 0.9
2014-Nov-23 07:33N 45°33' W 122°41'5 5.1
2014-Nov-23 06:33N 45°36' W 122°47'3 2.8
2014-Nov-23 05:33N 45°39' W 122°45'0 0.0
2014-Nov-23 04:33N 45°39' W 122°45'1 0.6
2014-Nov-23 03:33N 45°39' W 122°46'0 0.0
2014-Nov-23 02:33N 45°39' W 122°46'0 0.0
2014-Nov-23 01:33N 45°39' W 122°46'0 0.0
2014-Nov-23 00:33N 45°39' W 122°46'0 0.0
2014-Nov-22 23:33N 45°39' W 122°46'0 0.2
2014-Nov-22 22:33N 45°39' W 122°46'7 6.9
2014-Nov-22 21:33N 45°46' W 122°46'1110.8
2014-Nov-22 20:33N 45°57' W 122°48'1010.2
2014-Nov-22 19:33N 46°05' W 122°56'0 0.0
2014-Nov-22 18:33N 46°05' W 122°56'0 0.0
2014-Nov-22 17:33N 46°05' W 122°56'0 0.0
2014-Nov-22 16:33N 46°05' W 122°56'0 0.0
2014-Nov-22 15:33N 46°05' W 122°56'0 0.0
2014-Nov-22 14:33N 46°05' W 122°56'0 0.0
2014-Nov-22 13:33N 46°05' W 122°56'1 1.3
2014-Nov-22 12:33N 46°05' W 122°54'4 3.5
2014-Nov-22 11:33N 46°02' W 122°52'1 0.9
2014-Nov-22 10:33N 46°02' W 122°53'4 3.7
2014-Nov-22 09:33N 46°05' W 122°56'4 3.6
2014-Nov-22 08:33N 46°03' W 122°53'1 0.9
2014-Nov-22 07:33N 46°02' W 122°53'0 0.0
2014-Nov-22 06:33N 46°02' W 122°53'0 0.0
2014-Nov-22 05:33N 46°02' W 122°53'0 0.0
2014-Nov-22 04:33N 46°02' W 122°53'0 0.0
2014-Nov-22 03:33N 46°02' W 122°53'0 0.0
2014-Nov-22 02:33N 46°02' W 122°53'0 0.0
2014-Nov-22 01:33N 46°02' W 122°53'0 0.0
2014-Nov-22 00:33N 46°02' W 122°53'0 0.0
2014-Nov-21 23:33N 46°02' W 122°53'0 0.0
2014-Nov-21 22:33N 46°02' W 122°53'0 0.0
2014-Nov-21 21:33N 46°02' W 122°53'0 0.0
2014-Nov-21 20:33N 46°02' W 122°53'0 0.0
2014-Nov-21 19:33N 46°02' W 122°53'0 0.0
2014-Nov-21 18:33N 46°02' W 122°53'0 0.0
2014-Nov-21 17:33N 46°02' W 122°53'0 0.3
2014-Nov-21 16:33N 46°02' W 122°52'0 0.1
2014-Nov-21 15:33N 46°02' W 122°52'2 2.2
2014-Nov-21 14:33N 46°04' W 122°53'5 4.6
2014-Nov-21 13:33N 46°07' W 122°58'2 2.1
2014-Nov-21 12:33N 46°05' W 122°56'0 0.0
2014-Nov-21 11:33N 46°05' W 122°56'0 0.0
2014-Nov-21 10:33N 46°05' W 122°56'0 0.0
2014-Nov-21 09:33N 46°05' W 122°56'0 0.0
2014-Nov-21 08:33N 46°05' W 122°56'1 0.7
2014-Nov-21 07:34N 46°06' W 122°56'0 0.0
2014-Nov-21 06:34N 46°06' W 122°56'0 0.0
2014-Nov-21 05:33N 46°06' W 122°56'0 0.0
2014-Nov-21 04:34N 46°06' W 122°56'0 0.0
2014-Nov-21 03:33N 46°06' W 122°56'0 0.0
2014-Nov-21 02:33N 46°06' W 122°56'0 0.0
2014-Nov-21 01:33N 46°06' W 122°56'0 0.0
2014-Nov-21 00:33N 46°06' W 122°56'0 0.0
2014-Nov-20 23:33N 46°06' W 122°56'4 4.0
2014-Nov-20 22:33N 46°03' W 122°53'0 0.0
2014-Nov-20 21:33N 46°03' W 122°53'3 3.0
2014-Nov-20 20:33N 46°05' W 122°55'0 0.0
2014-Nov-20 19:33N 46°05' W 122°55'1 0.9
2014-Nov-20 18:33N 46°06' W 122°56'4 4.0
2014-Nov-20 17:33N 46°03' W 122°53'0 0.3
2014-Nov-20 16:33N 46°03' W 122°53'0 0.0
2014-Nov-20 15:33N 46°03' W 122°53'0 0.3
2014-Nov-20 14:33N 46°03' W 122°53'3 3.1
2014-Nov-20 13:33N 46°05' W 122°55'0 0.0
2014-Nov-20 12:33N 46°05' W 122°55'0 0.0
2014-Nov-20 11:33N 46°05' W 122°55'0 0.0
2014-Nov-20 10:33N 46°05' W 122°55'0 0.0
2014-Nov-20 09:33N 46°05' W 122°55'0 0.0
2014-Nov-20 08:33N 46°05' W 122°55'0 0.0
2014-Nov-20 07:33N 46°05' W 122°55'0 0.0
2014-Nov-20 06:33N 46°05' W 122°55'0 0.0
2014-Nov-20 05:33N 46°05' W 122°55'4 4.2
2014-Nov-20 04:33N 46°02' W 122°53'0 0.1
2014-Nov-20 03:33N 46°02' W 122°53'0 0.0
2014-Nov-20 02:33N 46°02' W 122°53'0 0.0
2014-Nov-20 01:33N 46°02' W 122°53'0 0.0
2014-Nov-20 00:33N 46°02' W 122°53'0 0.0
2014-Nov-19 23:33N 46°02' W 122°53'0 0.0
2014-Nov-19 22:33N 46°02' W 122°53'0 0.3
2014-Nov-19 21:33N 46°02' W 122°52'0 0.0
2014-Nov-19 20:33N 46°02' W 122°52'0 0.0
2014-Nov-19 19:33N 46°02' W 122°52'0 0.0
2014-Nov-19 18:33N 46°02' W 122°52'5 5.4
2014-Nov-19 17:33N 45°57' W 122°49'1312.6
2014-Nov-19 16:33N 45°45' W 122°46'8 8.3
2014-Nov-19 15:33N 45°36' W 122°47'3 3.2
2014-Nov-19 14:33N 45°39' W 122°46'1 1.3
2014-Nov-19 13:33N 45°38' W 122°47'1 1.2
2014-Nov-19 12:33N 45°39' W 122°46'1 0.9
2014-Nov-19 11:33N 45°39' W 122°45'0 0.0
2014-Nov-19 10:34N 45°39' W 122°45'2 2.5
2014-Nov-19 09:33N 45°37' W 122°47'3 2.8
2014-Nov-19 08:33N 45°35' W 122°45'1 0.8
2014-Nov-19 07:33N 45°34' W 122°44'3 3.0
2014-Nov-19 06:33N 45°36' W 122°47'3 2.8
2014-Nov-19 05:33N 45°39' W 122°45'0 0.0
2014-Nov-19 04:33N 45°39' W 122°45'0 0.0
2014-Nov-19 03:33N 45°39' W 122°45'2 2.2
2014-Nov-19 02:33N 45°38' W 122°42'1 1.4
2014-Nov-19 01:33N 45°38' W 122°44'1 0.6
2014-Nov-19 00:33N 45°38' W 122°43'0 0.0
2014-Nov-18 23:33N 45°38' W 122°43'0 0.3
2014-Nov-18 22:33N 45°38' W 122°42'0 0.4
2014-Nov-18 21:33N 45°38' W 122°42'2 1.6
2014-Nov-18 20:32N 45°39' W 122°44'1 0.7
2014-Nov-18 19:33N 45°38' W 122°44'1 0.9
2014-Nov-18 18:33N 45°39' W 122°45'0 0.0
2014-Nov-18 17:33N 45°39' W 122°45'1 1.4
2014-Nov-18 16:33N 45°38' W 122°47'5 5.2
2014-Nov-18 15:33N 45°34' W 122°44'3 2.6
2014-Nov-18 14:33N 45°32' W 122°41'1 0.5
2014-Nov-18 13:33N 45°32' W 122°41'3 3.1
2014-Nov-18 12:33N 45°34' W 122°45'4 4.3
2014-Nov-18 11:33N 45°39' W 122°45'0 0.4
2014-Nov-18 10:33N 45°39' W 122°45'0 0.0
2014-Nov-18 09:33N 45°39' W 122°45'0 0.0
2014-Nov-18 08:33N 45°39' W 122°45'0 0.0
2014-Nov-18 07:32N 45°39' W 122°45'1 1.4
2014-Nov-18 06:33N 45°38' W 122°47'1 1.2
2014-Nov-18 05:33N 45°39' W 122°45'1 0.8
2014-Nov-18 04:33N 45°39' W 122°45'0 0.0
2014-Nov-18 03:33N 45°39' W 122°45'1 1.2
2014-Nov-18 02:33N 45°38' W 122°43'3 3.4
2014-Nov-18 01:33N 45°37' W 122°47'7 6.8
2014-Nov-18 00:33N 45°32' W 122°40'3 2.8
2014-Nov-17 23:33N 45°34' W 122°44'0 0.0
2014-Nov-17 22:33N 45°34' W 122°44'0 0.0
2014-Nov-17 21:33N 45°34' W 122°44'1 0.5
2014-Nov-17 20:33N 45°34' W 122°44'0 0.2
2014-Nov-17 19:33N 45°34' W 122°44'3 2.7
2014-Nov-17 18:33N 45°32' W 122°41'0 0.2
2014-Nov-17 17:33N 45°32' W 122°41'0 0.2
2014-Nov-17 16:33N 45°32' W 122°41'  

Dump ship's entire track history